createdAt,value
2019-04-25T00:01:58.896Z,56.70
2019-04-25T00:04:27.529Z,56.80
2019-04-25T00:06:56.069Z,57.10
2019-04-25T00:09:26.479Z,56.70
2019-04-25T00:11:54.976Z,57.10
2019-04-25T00:14:23.701Z,56.80
2019-04-25T00:16:53.186Z,56.80
2019-04-25T00:19:21.948Z,56.60
2019-04-25T00:22:11.690Z,56.80
2019-04-25T00:24:52.039Z,56.70
2019-04-25T00:27:23.635Z,56.70
2019-04-25T00:29:51.740Z,57.00
2019-04-25T00:32:21.646Z,56.90
2019-04-25T00:34:51.681Z,56.90
2019-04-25T00:37:22.414Z,56.90
2019-04-25T00:39:51.692Z,56.90
2019-04-25T00:42:20.373Z,56.70
2019-04-25T00:44:49.577Z,56.70
2019-04-25T00:47:18.130Z,56.60
2019-04-25T00:49:47.913Z,56.30
2019-04-25T00:52:16.622Z,56.40
2019-04-25T00:54:45.068Z,56.20
2019-04-25T00:57:14.086Z,56.20
2019-04-25T00:59:45.407Z,56.10
2019-04-25T01:02:18.802Z,56.20
2019-04-25T01:04:47.322Z,56.20
2019-04-25T01:07:16.005Z,56.10
2019-04-25T01:09:44.439Z,56.10
2019-04-25T01:12:14.758Z,56.00
2019-04-25T01:14:44.206Z,55.80
2019-04-25T01:17:13.442Z,55.80
2019-04-25T01:19:41.880Z,55.70
2019-04-25T01:22:10.937Z,55.70
2019-04-25T01:24:39.430Z,55.80
2019-04-25T01:27:08.344Z,55.80
2019-04-25T01:29:36.861Z,55.70
2019-04-25T01:32:06.926Z,55.90
2019-04-25T01:34:48.850Z,56.00
2019-04-25T01:37:19.018Z,56.30
2019-04-25T01:39:49.084Z,55.70
2019-04-25T01:42:23.546Z,55.60
2019-04-25T01:44:53.858Z,55.50
2019-04-25T01:47:24.000Z,55.40
2019-04-25T01:49:54.277Z,55.40
2019-04-25T01:52:23.541Z,55.20
2019-04-25T01:54:54.626Z,55.10
2019-04-25T01:57:23.895Z,55.10
2019-04-25T01:59:54.120Z,55.10
2019-04-25T02:02:24.118Z,54.70
2019-04-25T02:04:54.776Z,54.90
2019-04-25T02:07:23.389Z,54.70
2019-04-25T02:09:53.956Z,54.60
2019-04-25T02:12:33.596Z,54.40
2019-04-25T02:15:05.931Z,54.50
2019-04-25T02:17:34.055Z,54.40
2019-04-25T02:20:04.542Z,54.50
2019-04-25T02:22:33.950Z,54.40
2019-04-25T02:25:04.557Z,54.30
2019-04-25T02:27:34.258Z,54.10
2019-04-25T02:30:04.394Z,54.10
2019-04-25T02:32:36.630Z,54.10
2019-04-25T02:35:08.791Z,54.10
2019-04-25T02:37:35.145Z,54.10
2019-04-25T02:40:06.806Z,54.10
2019-04-25T02:42:34.471Z,54.10
2019-04-25T02:45:08.205Z,54.10
2019-04-25T02:47:40.311Z,54.10
2019-04-25T02:50:19.996Z,54.10
2019-04-25T02:52:50.102Z,54.10
2019-04-25T02:55:30.638Z,54.00
2019-04-25T02:57:48.683Z,54.60
2019-04-25T03:00:24.798Z,53.90
2019-04-25T03:02:54.750Z,53.80
2019-04-25T03:05:25.465Z,53.60
2019-04-25T03:07:54.507Z,53.40
2019-04-25T03:10:26.684Z,53.20
2019-04-25T03:12:54.447Z,53.20
2019-04-25T03:15:24.344Z,53.10
2019-04-25T03:17:54.599Z,53.00
2019-04-25T03:20:40.198Z,52.80
2019-04-25T03:23:14.476Z,52.70
2019-04-25T03:25:43.481Z,52.70
2019-04-25T03:28:13.507Z,52.60
2019-04-25T03:30:44.747Z,52.40
2019-04-25T03:33:18.952Z,52.30
2019-04-25T03:35:43.146Z,52.10
2019-04-25T03:38:12.599Z,52.00
2019-04-25T03:40:41.728Z,51.80
2019-04-25T03:43:10.277Z,51.90
2019-04-25T03:45:38.796Z,51.90
2019-04-25T03:48:07.546Z,51.70
2019-04-25T03:50:36.192Z,51.60
2019-04-25T03:53:06.274Z,51.40
2019-04-25T03:55:35.964Z,51.50
2019-04-25T03:58:08.030Z,51.40
2019-04-25T04:00:36.400Z,51.50
2019-04-25T04:03:06.479Z,51.40
2019-04-25T04:05:35.390Z,51.40
2019-04-25T04:08:05.237Z,51.50
2019-04-25T04:10:34.083Z,51.40
2019-04-25T04:13:04.200Z,51.40
2019-04-25T04:15:33.515Z,51.20
2019-04-25T04:18:05.073Z,51.40
2019-04-25T04:20:53.418Z,51.40
2019-04-25T04:23:35.814Z,51.20
2019-04-25T04:26:05.494Z,51.20
2019-04-25T04:28:34.714Z,51.40
2019-04-25T04:31:03.687Z,51.60
2019-04-25T04:33:34.462Z,51.40
2019-04-25T04:36:03.761Z,51.40
2019-04-25T04:38:34.111Z,51.20
2019-04-25T04:41:03.961Z,51.40
2019-04-25T04:43:34.170Z,51.40
2019-04-25T04:46:03.936Z,51.20
2019-04-25T04:48:34.099Z,51.30
2019-04-25T04:51:03.437Z,51.20
2019-04-25T04:53:35.587Z,51.20
2019-04-25T04:56:04.170Z,51.10
2019-04-25T04:58:34.217Z,51.10
2019-04-25T05:01:03.670Z,51.30
2019-04-25T05:03:44.090Z,51.30
2019-04-25T05:06:15.306Z,51.30
2019-04-25T05:08:46.325Z,51.40
2019-04-25T05:11:15.816Z,51.30
2019-04-25T05:13:45.158Z,51.30
2019-04-25T05:16:14.900Z,51.30
2019-04-25T05:18:43.857Z,51.40
2019-04-25T05:21:13.264Z,51.30
2019-04-25T05:23:44.028Z,51.90
2019-04-25T05:26:14.885Z,51.20
2019-04-25T05:28:44.446Z,51.30
2019-04-25T05:31:16.827Z,51.20
2019-04-25T05:33:44.989Z,51.10
2019-04-25T05:36:15.006Z,50.80
2019-04-25T05:38:45.131Z,51.20
2019-04-25T05:41:16.037Z,51.10
2019-04-25T05:43:45.445Z,50.90
2019-04-25T05:46:15.760Z,51.00
2019-04-25T05:48:44.354Z,51.00
2019-04-25T05:51:13.635Z,51.00
2019-04-25T05:53:43.325Z,50.80
2019-04-25T05:56:12.012Z,50.80
2019-04-25T05:58:40.542Z,50.80
2019-04-25T06:01:09.070Z,50.90
2019-04-25T06:03:38.899Z,51.00
2019-04-25T06:06:07.811Z,51.00
2019-04-25T06:08:37.903Z,51.10
2019-04-25T06:11:08.030Z,51.10
2019-04-25T06:13:44.045Z,51.20
2019-04-25T06:16:14.300Z,51.60
2019-04-25T06:19:12.948Z,51.90
2019-04-25T06:21:31.781Z,52.30
2019-04-25T06:24:19.141Z,52.10
2019-04-25T06:26:49.387Z,52.10
2019-04-25T06:29:17.962Z,52.10
2019-04-25T06:31:47.663Z,52.20
2019-04-25T06:34:17.586Z,51.90
2019-04-25T06:36:46.068Z,52.00
2019-04-25T06:39:14.573Z,51.80
2019-04-25T06:41:44.144Z,51.80
2019-04-25T06:44:14.499Z,51.80
2019-04-25T06:47:03.416Z,52.40
2019-04-25T06:49:37.379Z,51.40
2019-04-25T06:52:06.035Z,51.40
2019-04-25T06:54:35.256Z,51.80
2019-04-25T06:57:04.544Z,51.40
2019-04-25T06:59:34.450Z,51.50
2019-04-25T07:02:04.237Z,51.30
2019-04-25T07:04:33.965Z,50.90
2019-04-25T07:07:11.995Z,51.00
2019-04-25T07:09:34.957Z,51.10
2019-04-25T07:12:03.796Z,51.20
2019-04-25T07:14:33.837Z,51.50
2019-04-25T07:17:04.241Z,51.30
2019-04-25T07:19:34.345Z,51.10
2019-04-25T07:22:03.909Z,50.90
2019-04-25T07:24:35.058Z,50.90
2019-04-25T07:27:07.191Z,50.90
2019-04-25T07:29:55.725Z,50.90
2019-04-25T07:32:32.534Z,51.00
2019-04-25T07:35:03.473Z,50.90
2019-04-25T07:37:34.261Z,51.20
2019-04-25T07:40:04.125Z,50.90
2019-04-25T07:42:34.247Z,51.20
2019-04-25T07:45:04.194Z,51.50
2019-04-25T07:47:35.029Z,51.10
2019-04-25T07:50:04.036Z,51.30
2019-04-25T07:52:33.567Z,52.10
2019-04-25T07:55:03.767Z,50.90
2019-04-25T07:57:33.534Z,51.20
2019-04-25T08:00:03.247Z,51.30
2019-04-25T08:02:34.128Z,50.80
2019-04-25T08:05:05.534Z,50.80
2019-04-25T08:07:35.284Z,51.00
2019-04-25T08:10:07.871Z,51.00
2019-04-25T08:12:37.266Z,50.90
2019-04-25T08:15:11.766Z,50.80
2019-04-25T08:17:57.165Z,50.30
2019-04-25T08:20:25.705Z,50.40
2019-04-25T08:22:58.544Z,50.30
2019-04-25T08:25:24.968Z,50.50
2019-04-25T08:27:55.127Z,50.30
2019-04-25T08:30:24.059Z,50.80
2019-04-25T08:32:54.079Z,50.10
2019-04-25T08:35:24.092Z,49.50
2019-04-25T08:37:53.732Z,49.60
2019-04-25T08:40:23.810Z,49.90
2019-04-25T08:42:53.815Z,49.50
2019-04-25T08:45:24.337Z,49.90
2019-04-25T08:47:53.821Z,49.40
2019-04-25T08:50:28.966Z,49.40
2019-04-25T08:52:54.529Z,49.70
2019-04-25T08:55:41.741Z,49.60
2019-04-25T08:58:31.291Z,48.70
2019-04-25T09:01:18.826Z,48.10
2019-04-25T09:03:51.932Z,48.60
2019-04-25T09:06:20.412Z,48.40
2019-04-25T09:08:48.975Z,48.20
2019-04-25T09:11:17.784Z,48.00
2019-04-25T09:13:48.210Z,48.00
2019-04-25T09:16:16.932Z,47.80
2019-04-25T09:18:46.437Z,47.20
2019-04-25T09:21:15.081Z,47.30
2019-04-25T09:23:44.841Z,46.90
2019-04-25T09:26:14.283Z,46.40
2019-04-25T09:28:45.308Z,46.40
2019-04-25T09:31:13.975Z,46.70
2019-04-25T09:33:45.356Z,46.80
2019-04-25T09:36:14.134Z,46.70
2019-04-25T09:38:47.991Z,46.30
2019-04-25T09:41:15.061Z,46.10
2019-04-25T09:43:45.597Z,46.20
2019-04-25T09:46:15.657Z,46.10
2019-04-25T09:48:52.221Z,46.60
2019-04-25T09:51:23.599Z,46.10
2019-04-25T09:53:54.171Z,45.50
2019-04-25T09:56:36.628Z,44.70
2019-04-25T09:59:26.748Z,44.60
2019-04-25T10:01:48.249Z,44.50
2019-04-25T10:04:17.071Z,44.70
2019-04-25T10:06:46.070Z,44.70
2019-04-25T10:09:15.679Z,44.80
2019-04-25T10:11:45.453Z,45.00
2019-04-25T10:14:20.822Z,44.90
2019-04-25T10:16:49.613Z,44.60
2019-04-25T10:19:18.215Z,44.00
2019-04-25T10:21:47.612Z,44.70
2019-04-25T10:24:16.441Z,44.70
2019-04-25T10:26:45.176Z,44.30
2019-04-25T10:29:14.679Z,43.50
2019-04-25T10:31:44.279Z,44.20
2019-04-25T10:34:14.061Z,44.30
2019-04-25T10:36:44.466Z,44.50
2019-04-25T10:39:14.480Z,44.70
2019-04-25T10:41:44.828Z,44.20
2019-04-25T10:44:14.147Z,45.00
2019-04-25T10:46:45.704Z,45.00
2019-04-25T10:49:14.487Z,44.30
2019-04-25T10:51:44.761Z,44.40
2019-04-25T10:54:14.537Z,44.80
2019-04-25T10:56:45.663Z,45.30
2019-04-25T10:59:14.458Z,46.10
2019-04-25T11:01:45.750Z,46.90
2019-04-25T11:04:24.126Z,47.20
2019-04-25T11:06:52.694Z,47.90
2019-04-25T11:09:24.174Z,49.60
2019-04-25T11:11:52.955Z,50.20
2019-04-25T11:14:21.645Z,51.50
2019-04-25T11:16:50.435Z,51.10
2019-04-25T11:19:19.424Z,52.00
2019-04-25T11:21:47.966Z,52.30
2019-04-25T11:24:16.546Z,52.50
2019-04-25T11:26:48.821Z,52.80
2019-04-25T11:29:15.821Z,53.30
2019-04-25T11:31:47.296Z,53.90
2019-04-25T11:34:16.956Z,54.20
2019-04-25T11:36:45.715Z,54.50
2019-04-25T11:39:32.002Z,55.40
2019-04-25T11:42:00.798Z,55.50
2019-04-25T11:44:29.618Z,56.20
2019-04-25T11:46:58.827Z,55.80
2019-04-25T11:49:27.589Z,56.10
2019-04-25T11:51:56.235Z,56.00
2019-04-25T11:54:24.862Z,56.40
2019-04-25T11:56:54.713Z,56.50
2019-04-25T11:59:23.645Z,57.20
2019-04-25T12:01:52.520Z,57.30
2019-04-25T12:04:21.098Z,57.40
2019-04-25T12:06:49.714Z,57.60
2019-04-25T12:09:18.478Z,57.70
2019-04-25T12:11:48.348Z,57.80
2019-04-25T12:14:17.422Z,57.40
2019-04-25T12:16:48.429Z,57.40
2019-04-25T12:19:16.106Z,57.60
2019-04-25T12:21:44.771Z,57.60
2019-04-25T12:24:14.364Z,58.00
2019-04-25T12:26:45.308Z,57.90
2019-04-25T12:29:14.377Z,58.40
2019-04-25T12:31:45.296Z,58.60
2019-04-25T12:34:14.149Z,58.50
2019-04-25T12:36:44.313Z,59.10
2019-04-25T12:39:13.965Z,59.40
2019-04-25T12:41:49.335Z,59.30
2019-04-25T12:44:23.234Z,60.10
2019-04-25T12:46:54.572Z,59.50
2019-04-25T12:49:24.208Z,60.00
2019-04-25T12:51:52.743Z,60.30
2019-04-25T12:54:21.422Z,60.40
2019-04-25T12:56:50.255Z,60.20
2019-04-25T12:59:18.686Z,60.30
2019-04-25T13:01:47.584Z,60.20
2019-04-25T13:04:16.217Z,60.20
2019-04-25T13:06:44.713Z,60.80
2019-04-25T13:09:15.072Z,60.60
2019-04-25T13:11:43.779Z,60.70
2019-04-25T13:14:12.337Z,60.40
2019-04-25T13:16:40.926Z,60.80
2019-04-25T13:19:20.024Z,60.40
2019-04-25T13:21:39.773Z,61.00
2019-04-25T13:24:08.420Z,60.50
2019-04-25T13:26:38.749Z,60.70
2019-04-25T13:29:09.208Z,60.20
2019-04-25T13:31:39.482Z,60.10
2019-04-25T13:34:09.925Z,60.00
2019-04-25T13:36:38.607Z,59.90
2019-04-25T13:39:09.224Z,60.00
2019-04-25T13:41:37.825Z,59.90
2019-04-25T13:44:07.126Z,59.80
2019-04-25T13:46:35.774Z,59.90
2019-04-25T13:49:04.490Z,60.00
2019-04-25T13:51:33.293Z,59.90
2019-04-25T13:54:01.962Z,60.00
2019-04-25T13:56:30.720Z,59.90
2019-04-25T13:58:59.329Z,60.20
2019-04-25T14:01:28.118Z,60.00
2019-04-25T14:03:57.112Z,60.10
2019-04-25T14:06:26.227Z,60.00
2019-04-25T14:08:55.080Z,60.20
2019-04-25T14:11:24.194Z,60.40
2019-04-25T14:13:52.930Z,60.40
2019-04-25T14:16:26.682Z,60.90
2019-04-25T14:18:59.773Z,60.50
2019-04-25T14:21:29.237Z,60.00
2019-04-25T14:23:57.986Z,59.80
2019-04-25T14:26:27.251Z,60.10
2019-04-25T14:28:55.838Z,60.10
2019-04-25T14:31:39.341Z,60.10
2019-04-25T14:33:55.529Z,60.00
2019-04-25T14:36:25.003Z,60.10
2019-04-25T14:38:54.464Z,60.00
2019-04-25T14:41:23.803Z,59.90
2019-04-25T14:43:52.447Z,59.10
2019-04-25T14:46:20.962Z,59.50
2019-04-25T14:48:50.256Z,58.80
2019-04-25T14:51:18.995Z,59.30
2019-04-25T14:53:47.536Z,59.70
2019-04-25T14:56:34.286Z,60.40
2019-04-25T14:59:03.370Z,59.30
2019-04-25T15:01:44.241Z,59.00
2019-04-25T15:04:02.631Z,60.40
2019-04-25T15:06:31.994Z,57.50
2019-04-25T15:09:00.878Z,55.90
2019-04-25T15:11:29.787Z,55.80
2019-04-25T15:13:58.485Z,55.00
2019-04-25T15:16:27.368Z,55.90
2019-04-25T15:18:55.849Z,57.00
2019-04-25T15:21:27.590Z,55.90
2019-04-25T15:24:00.372Z,55.40
2019-04-25T15:26:26.916Z,57.60
2019-04-25T15:28:55.351Z,57.70
2019-04-25T15:31:25.555Z,57.50
2019-04-25T15:33:54.426Z,56.70
2019-04-25T15:36:24.791Z,54.40
2019-04-25T15:39:11.403Z,53.40
2019-04-25T15:42:06.438Z,52.10
2019-04-25T15:44:43.475Z,53.30
2019-04-25T15:47:13.805Z,54.50
2019-04-25T15:49:42.938Z,55.60
2019-04-25T15:52:12.127Z,55.80
2019-04-25T15:54:40.798Z,56.10
2019-04-25T15:57:10.073Z,55.50
2019-04-25T15:59:38.566Z,55.30
2019-04-25T16:02:08.875Z,54.60
2019-04-25T16:04:37.585Z,55.00
2019-04-25T16:07:06.364Z,55.30
2019-04-25T16:09:34.939Z,55.20
2019-04-25T16:12:03.627Z,54.90
2019-04-25T16:14:32.106Z,55.20
2019-04-25T16:17:00.789Z,55.80
2019-04-25T16:19:29.541Z,59.00
2019-04-25T16:21:58.470Z,58.90
2019-04-25T16:24:27.963Z,58.80
2019-04-25T16:26:57.511Z,58.30
2019-04-25T16:29:27.661Z,57.40
2019-04-25T16:31:57.932Z,58.80
2019-04-25T16:34:26.523Z,58.80
2019-04-25T16:36:55.095Z,60.00
2019-04-25T16:39:25.227Z,60.00
2019-04-25T16:41:53.818Z,60.80
2019-04-25T16:44:22.807Z,61.70
2019-04-25T16:46:51.461Z,62.60
2019-04-25T16:49:20.170Z,63.00
2019-04-25T16:51:51.953Z,62.70
2019-04-25T16:54:20.719Z,63.40
2019-04-25T16:56:49.481Z,62.90
2019-04-25T16:59:23.828Z,62.70
2019-04-25T17:01:55.565Z,62.00
2019-04-25T17:04:24.358Z,61.40
2019-04-25T17:06:53.014Z,60.60
2019-04-25T17:09:21.601Z,61.40
2019-04-25T17:11:50.132Z,61.20
2019-04-25T17:14:37.498Z,61.00
2019-04-25T17:17:07.861Z,60.30
2019-04-25T17:19:42.163Z,59.80
2019-04-25T17:22:10.869Z,59.90
2019-04-25T17:24:39.453Z,59.70
2019-04-25T17:27:08.674Z,59.70
2019-04-25T17:29:37.841Z,59.10
2019-04-25T17:32:09.436Z,59.00
2019-04-25T17:34:56.631Z,58.80
2019-04-25T17:37:38.926Z,58.60
2019-04-25T17:40:09.125Z,58.60
2019-04-25T17:42:38.885Z,58.40
2019-04-25T17:45:09.175Z,58.40
2019-04-25T17:47:38.600Z,58.30
2019-04-25T17:50:07.522Z,58.00
2019-04-25T17:52:38.225Z,57.80
2019-04-25T17:55:06.788Z,57.50
2019-04-25T17:57:37.853Z,57.60
2019-04-25T18:00:09.974Z,57.60
2019-04-25T18:02:41.335Z,57.50
2019-04-25T18:05:10.114Z,57.40
2019-04-25T18:07:39.087Z,57.10
2019-04-25T18:10:09.548Z,56.80
2019-04-25T18:12:38.309Z,56.40
2019-04-25T18:15:10.902Z,56.40
2019-04-25T18:17:40.256Z,56.30
2019-04-25T18:20:10.494Z,57.30
2019-04-25T18:22:49.307Z,56.60
2019-04-25T18:25:19.568Z,56.80
2019-04-25T18:27:52.653Z,56.80
2019-04-25T18:30:21.549Z,56.80
2019-04-25T18:32:54.439Z,56.80
2019-04-25T18:35:24.875Z,56.90
2019-04-25T18:37:58.198Z,56.70
2019-04-25T18:40:44.865Z,57.10
2019-04-25T18:43:22.335Z,56.90
2019-04-25T18:45:55.071Z,56.90
2019-04-25T18:48:23.639Z,57.00
2019-04-25T18:50:52.223Z,57.00
2019-04-25T18:53:39.129Z,57.10
2019-04-25T18:56:18.651Z,57.10
2019-04-25T18:58:51.568Z,56.90
2019-04-25T19:01:27.876Z,57.30
2019-04-25T19:03:58.349Z,57.50
2019-04-25T19:06:27.907Z,57.30
2019-04-25T19:08:56.601Z,57.30
2019-04-25T19:11:25.060Z,57.60
2019-04-25T19:13:53.941Z,57.80
2019-04-25T19:16:27.109Z,57.80
2019-04-25T19:18:56.634Z,57.90
2019-04-25T19:21:25.159Z,58.00
2019-04-25T19:23:53.638Z,58.00
2019-04-25T19:26:22.443Z,58.10
2019-04-25T19:28:53.229Z,58.20
2019-04-25T19:31:21.784Z,58.40
2019-04-25T19:33:50.223Z,58.30
2019-04-25T19:36:19.336Z,58.40
2019-04-25T19:38:48.299Z,58.40
2019-04-25T19:41:18.409Z,58.50
2019-04-25T19:43:48.670Z,59.10
2019-04-25T19:46:17.229Z,58.20
2019-04-25T19:48:47.458Z,58.30
2019-04-25T19:51:16.014Z,58.40
2019-04-25T19:53:45.025Z,58.50
2019-04-25T19:56:13.611Z,58.40
2019-04-25T19:58:44.229Z,58.20
2019-04-25T20:01:12.913Z,58.20
2019-04-25T20:03:54.970Z,58.10
2019-04-25T20:06:40.736Z,58.30
2019-04-25T20:09:11.651Z,58.20
2019-04-25T20:11:42.703Z,58.30
2019-04-25T20:14:11.946Z,58.30
2019-04-25T20:16:43.416Z,58.30
2019-04-25T20:19:12.469Z,58.30
2019-04-25T20:21:40.973Z,58.40
2019-04-25T20:24:09.514Z,58.30
2019-04-25T20:26:38.015Z,58.30
2019-04-25T20:29:07.676Z,58.20
2019-04-25T20:31:36.333Z,58.20
2019-04-25T20:34:06.195Z,58.30
2019-04-25T20:36:34.994Z,58.20
2019-04-25T20:39:04.866Z,58.40
2019-04-25T20:41:33.396Z,58.30
2019-04-25T20:44:01.926Z,58.50
2019-04-25T20:46:30.517Z,58.50
2019-04-25T20:48:59.089Z,58.50
2019-04-25T20:51:27.582Z,58.80
2019-04-25T20:53:57.043Z,59.00
2019-04-25T20:56:25.694Z,60.10
2019-04-25T20:58:54.194Z,59.60
2019-04-25T21:01:22.762Z,59.80
2019-04-25T21:03:52.070Z,60.00
2019-04-25T21:06:25.391Z,60.20
2019-04-25T21:08:53.863Z,60.40
2019-04-25T21:11:22.318Z,60.50
2019-04-25T21:14:01.603Z,60.80
2019-04-25T21:16:44.872Z,61.20
2019-04-25T21:19:17.726Z,61.20
2019-04-25T21:21:46.265Z,61.30
2019-04-25T21:24:14.781Z,61.20
2019-04-25T21:26:43.371Z,61.20
2019-04-25T21:29:11.826Z,61.10
2019-04-25T21:31:40.399Z,61.10
2019-04-25T21:34:08.931Z,60.90
2019-04-25T21:36:37.788Z,60.80
2019-04-25T21:39:08.060Z,60.80
2019-04-25T21:41:38.894Z,60.70
2019-04-25T21:44:08.232Z,60.50
2019-04-25T21:46:38.630Z,60.50
2019-04-25T21:49:07.206Z,60.50
2019-04-25T21:51:35.753Z,60.30
2019-04-25T21:54:04.381Z,60.40
2019-04-25T21:56:33.234Z,60.20
2019-04-25T21:59:02.010Z,60.40
2019-04-25T22:01:32.222Z,60.50
2019-04-25T22:04:00.764Z,60.30
2019-04-25T22:06:29.658Z,60.50
2019-04-25T22:08:58.729Z,60.30
2019-04-25T22:11:27.223Z,60.20
2019-04-25T22:13:56.612Z,60.40
2019-04-25T22:16:26.189Z,60.60
2019-04-25T22:18:55.514Z,60.50
2019-04-25T22:21:37.239Z,60.70
2019-04-25T22:24:06.140Z,60.70
2019-04-25T22:26:25.153Z,61.10
2019-04-25T22:28:54.038Z,61.50
2019-04-25T22:31:27.348Z,61.70
2019-04-25T22:34:09.367Z,62.00
2019-04-25T22:36:38.153Z,62.00
2019-04-25T22:39:14.446Z,62.10
2019-04-25T22:41:48.286Z,62.00
2019-04-25T22:44:18.475Z,62.10
2019-04-25T22:46:47.415Z,61.70
2019-04-25T22:49:15.880Z,61.70
2019-04-25T22:51:45.829Z,61.40
2019-04-25T22:54:14.749Z,61.20
2019-04-25T22:56:44.913Z,61.30
2019-04-25T22:59:13.891Z,61.20
2019-04-25T23:01:59.314Z,61.00
2019-04-25T23:04:35.428Z,61.00
2019-04-25T23:07:05.838Z,60.80
2019-04-25T23:09:37.267Z,61.00
2019-04-25T23:12:06.694Z,61.00
2019-04-25T23:14:35.613Z,61.10
2019-04-25T23:17:05.195Z,61.10
2019-04-25T23:19:33.852Z,61.30
2019-04-25T23:22:03.096Z,61.50
2019-04-25T23:24:34.473Z,61.80
2019-04-25T23:27:06.182Z,62.10
2019-04-25T23:29:34.898Z,62.30
2019-04-25T23:32:05.663Z,62.30
2019-04-25T23:34:34.690Z,62.40
2019-04-25T23:37:03.238Z,62.40
2019-04-25T23:39:31.993Z,62.20
2019-04-25T23:42:00.558Z,62.00
2019-04-25T23:44:29.037Z,61.80
2019-04-25T23:46:57.866Z,61.70
2019-04-25T23:49:26.372Z,61.60
2019-04-25T23:51:55.175Z,61.70
2019-04-25T23:54:26.280Z,61.60
2019-04-25T23:56:55.050Z,61.60
2019-04-25T23:59:23.554Z,61.50
